createdAt,value
2022-12-03T00:00:16.192Z,100963.63
2022-12-03T00:02:44.947Z,100958.75
2022-12-03T00:05:13.625Z,100958.91
2022-12-03T00:07:42.302Z,100949.28
2022-12-03T00:10:11.700Z,100951.88
2022-12-03T00:12:40.208Z,100957.69
2022-12-03T00:15:09.690Z,100952.09
2022-12-03T00:17:38.245Z,100954.22
2022-12-03T00:20:09.283Z,100943.88
2022-12-03T00:22:37.838Z,100937.97
2022-12-03T00:25:06.680Z,100949.16
2022-12-03T00:27:35.150Z,100944.50
2022-12-03T00:30:03.615Z,100949.72
2022-12-03T00:32:32.020Z,100947.78
2022-12-03T00:35:00.467Z,100944.66
2022-12-03T00:37:29.013Z,100944.84
2022-12-03T00:39:57.652Z,100945.53
2022-12-03T00:42:26.189Z,100944.50
2022-12-03T00:44:54.895Z,100940.59
2022-12-03T00:47:23.684Z,100941.69
2022-12-03T00:49:52.202Z,100941.19
2022-12-03T00:52:20.863Z,100945.53
2022-12-03T00:54:49.313Z,100950.00
2022-12-03T00:57:17.969Z,100952.47
2022-12-03T00:59:46.424Z,100948.31
2022-12-03T01:02:15.017Z,100958.34
2022-12-03T01:04:43.550Z,100954.78
2022-12-03T01:07:12.055Z,100941.63
2022-12-03T01:09:40.522Z,100955.38
2022-12-03T01:12:08.979Z,100959.19
2022-12-03T01:14:37.537Z,100951.97
2022-12-03T01:17:06.892Z,100952.63
2022-12-03T01:19:36.333Z,100951.69
2022-12-03T01:22:04.861Z,100949.16
2022-12-03T01:24:33.326Z,100950.44
2022-12-03T01:27:01.747Z,100952.59
2022-12-03T01:29:30.380Z,100951.97
2022-12-03T01:32:16.242Z,100946.56
2022-12-03T01:34:53.653Z,100945.22
2022-12-03T01:37:25.915Z,100948.75
2022-12-03T01:39:54.728Z,100937.06
2022-12-03T01:42:38.326Z,100941.25
2022-12-03T01:45:07.920Z,100943.44
2022-12-03T01:47:38.686Z,100942.66
2022-12-03T01:50:15.540Z,100949.97
2022-12-03T01:52:44.276Z,100937.53
2022-12-03T01:55:21.712Z,100940.53
2022-12-03T01:57:54.408Z,100939.06
2022-12-03T02:00:26.980Z,100942.00
2022-12-03T02:03:01.663Z,100941.00
2022-12-03T02:05:35.315Z,100934.25
2022-12-03T02:08:22.728Z,100933.66
2022-12-03T02:10:52.084Z,100938.72
2022-12-03T02:13:20.747Z,100934.63
2022-12-03T02:15:49.231Z,100929.44
2022-12-03T02:18:17.787Z,100936.09
2022-12-03T02:21:11.789Z,100939.97
2022-12-03T02:23:48.788Z,100928.41
2022-12-03T02:26:17.246Z,100941.56
2022-12-03T02:28:45.794Z,100938.59
2022-12-03T02:31:14.322Z,100937.44
2022-12-03T02:33:42.823Z,100941.31
2022-12-03T02:36:11.450Z,100937.53
2022-12-03T02:38:40.019Z,100941.94
2022-12-03T02:41:32.806Z,100942.84
2022-12-03T02:44:00.238Z,100939.19
2022-12-03T02:46:28.825Z,100942.31
2022-12-03T02:48:57.395Z,100946.97
2022-12-03T02:51:26.059Z,100943.81
2022-12-03T02:53:56.539Z,100945.09
2022-12-03T02:56:29.821Z,100940.72
2022-12-03T02:59:03.202Z,100933.53
2022-12-03T03:01:31.979Z,100942.25
2022-12-03T03:04:00.717Z,100948.75
2022-12-03T03:06:29.437Z,100943.53
2022-12-03T03:08:58.137Z,100942.59
2022-12-03T03:11:27.015Z,100949.25
2022-12-03T03:13:55.474Z,100951.31
2022-12-03T03:16:23.962Z,100952.03
2022-12-03T03:18:52.718Z,100946.72
2022-12-03T03:21:21.220Z,100941.00
2022-12-03T03:23:49.645Z,100947.41
2022-12-03T03:26:18.210Z,100954.91
2022-12-03T03:28:52.100Z,100946.25
2022-12-03T03:31:24.645Z,100940.22
2022-12-03T03:33:53.339Z,100944.91
2022-12-03T03:36:22.158Z,100941.94
2022-12-03T03:38:50.981Z,100947.91
2022-12-03T03:41:20.008Z,100941.69
2022-12-03T03:43:50.940Z,100939.19
2022-12-03T03:46:20.531Z,100936.69
2022-12-03T03:48:50.101Z,100943.88
2022-12-03T03:51:19.660Z,100940.69
2022-12-03T03:53:49.793Z,100937.78
2022-12-03T03:56:20.732Z,100936.63
2022-12-03T03:58:49.369Z,100939.56
2022-12-03T04:01:19.426Z,100927.75
2022-12-03T04:03:48.124Z,100923.19
2022-12-03T04:06:16.921Z,100926.16
2022-12-03T04:08:45.453Z,100915.88
2022-12-03T04:11:31.384Z,100919.81
2022-12-03T04:13:59.824Z,100916.66
2022-12-03T04:16:28.425Z,100920.50
2022-12-03T04:18:57.097Z,100913.75
2022-12-03T04:21:43.468Z,100915.63
2022-12-03T04:24:12.996Z,100919.25
2022-12-03T04:26:58.780Z,100912.59
2022-12-03T04:29:27.334Z,100915.03
2022-12-03T04:32:12.948Z,100909.59
2022-12-03T04:34:58.996Z,100909.59
2022-12-03T04:37:27.852Z,100915.03
2022-12-03T04:39:56.527Z,100919.25
2022-12-03T04:42:24.955Z,100915.03
2022-12-03T04:44:53.689Z,100909.97
2022-12-03T04:47:23.478Z,100915.03
2022-12-03T04:49:53.191Z,100912.72
2022-12-03T04:52:22.547Z,100907.59
2022-12-03T04:54:51.102Z,100910.19
2022-12-03T04:57:19.653Z,100905.75
2022-12-03T04:59:48.059Z,100909.59
2022-12-03T05:02:16.526Z,100910.31
2022-12-03T05:04:44.940Z,100910.44
2022-12-03T05:07:13.367Z,100911.91
2022-12-03T05:09:41.771Z,100900.63
2022-12-03T05:12:10.147Z,100903.13
2022-12-03T05:14:38.639Z,100911.72
2022-12-03T05:17:07.140Z,100896.56
2022-12-03T05:19:52.052Z,100895.72
2022-12-03T05:22:20.470Z,100893.50
2022-12-03T05:24:49.108Z,100890.47
2022-12-03T05:27:23.379Z,100894.13
2022-12-03T05:29:53.001Z,100885.34
2022-12-03T05:32:21.794Z,100883.66
2022-12-03T05:34:50.295Z,100879.53
2022-12-03T05:37:18.699Z,100891.69
2022-12-03T05:39:47.135Z,100881.88
2022-12-03T05:42:33.045Z,100884.50
2022-12-03T05:45:01.460Z,100884.25
2022-12-03T05:47:29.882Z,100882.91
2022-12-03T05:49:58.309Z,100887.38
2022-12-03T05:52:26.836Z,100876.66
2022-12-03T05:54:55.476Z,100878.53
2022-12-03T05:57:24.336Z,100886.09
2022-12-03T05:59:52.780Z,100894.31
2022-12-03T06:02:21.354Z,100887.19
2022-12-03T06:04:49.863Z,100891.78
2022-12-03T06:07:20.917Z,100880.50
2022-12-03T06:09:49.354Z,100879.84
2022-12-03T06:12:17.776Z,100880.81
2022-12-03T06:14:46.252Z,100869.03
2022-12-03T06:17:14.818Z,100879.41
2022-12-03T06:19:43.250Z,100887.44
2022-12-03T06:22:11.725Z,100884.81
2022-12-03T06:24:40.444Z,100889.97
2022-12-03T06:27:08.864Z,100891.06
2022-12-03T06:29:37.382Z,100887.75
2022-12-03T06:32:06.732Z,100886.72
2022-12-03T06:34:35.432Z,100889.06
2022-12-03T06:37:03.857Z,100897.50
2022-12-03T06:39:32.495Z,100891.88
2022-12-03T06:42:01.025Z,100886.91
2022-12-03T06:44:29.512Z,100897.19
2022-12-03T06:46:58.070Z,100883.16
2022-12-03T06:49:26.662Z,100889.44
2022-12-03T06:51:56.035Z,100890.47
2022-12-03T06:54:24.462Z,100891.59
2022-12-03T06:56:52.854Z,100886.34
2022-12-03T06:59:21.325Z,100893.56
2022-12-03T07:01:49.808Z,100885.97
2022-12-03T07:04:18.347Z,100890.66
2022-12-03T07:06:46.792Z,100885.63
2022-12-03T07:09:16.928Z,100884.06
2022-12-03T07:11:45.475Z,100890.31
2022-12-03T07:14:13.978Z,100896.31
2022-12-03T07:16:43.420Z,100893.03
2022-12-03T07:19:12.962Z,100892.25
2022-12-03T07:21:41.632Z,100893.66
2022-12-03T07:24:10.569Z,100891.22
2022-12-03T07:26:39.077Z,100890.13
2022-12-03T07:29:07.676Z,100884.06
2022-12-03T07:31:36.279Z,100891.25
2022-12-03T07:34:04.874Z,100885.47
2022-12-03T07:36:33.536Z,100878.97
2022-12-03T07:39:02.110Z,100879.94
2022-12-03T07:41:30.630Z,100882.38
2022-12-03T07:43:59.081Z,100868.50
2022-12-03T07:46:27.577Z,100870.09
2022-12-03T07:48:56.285Z,100875.81
2022-12-03T07:51:28.941Z,100879.03
2022-12-03T07:54:00.501Z,100880.81
2022-12-03T07:56:29.271Z,100881.03
2022-12-03T07:58:57.848Z,100883.09
2022-12-03T08:01:26.481Z,100881.97
2022-12-03T08:03:55.270Z,100889.63
2022-12-03T08:06:23.748Z,100882.63
2022-12-03T08:08:52.511Z,100888.91
2022-12-03T08:11:21.336Z,100888.91
2022-12-03T08:13:49.834Z,100880.59
2022-12-03T08:16:21.890Z,100891.25
2022-12-03T08:18:51.436Z,100884.41
2022-12-03T08:21:23.022Z,100887.19
2022-12-03T08:23:51.478Z,100892.84
2022-12-03T08:26:27.532Z,100870.78
2022-12-03T08:28:56.299Z,100882.44
2022-12-03T08:31:32.984Z,100872.06
2022-12-03T08:34:23.553Z,100873.84
2022-12-03T08:36:59.149Z,100871.03
2022-12-03T08:39:38.195Z,100872.19
2022-12-03T08:42:30.106Z,100874.44
2022-12-03T08:45:00.769Z,100874.50
2022-12-03T08:47:31.103Z,100873.41
2022-12-03T08:50:18.539Z,100863.78
2022-12-03T08:52:47.170Z,100876.50
2022-12-03T08:55:37.681Z,100867.25
2022-12-03T08:58:38.900Z,100870.69
2022-12-03T09:01:10.258Z,100869.28
2022-12-03T09:03:41.423Z,100876.69
2022-12-03T09:06:09.864Z,100870.97
2022-12-03T09:08:38.257Z,100870.13
2022-12-03T09:11:06.844Z,100875.47
2022-12-03T09:13:35.290Z,100868.09
2022-12-03T09:16:03.924Z,100876.91
2022-12-03T09:18:32.626Z,100873.13
2022-12-03T09:21:01.188Z,100871.66
2022-12-03T09:23:29.748Z,100868.94
2022-12-03T09:25:58.415Z,100866.31
2022-12-03T09:28:26.902Z,100874.84
2022-12-03T09:30:55.456Z,100876.97
2022-12-03T09:33:24.037Z,100876.31
2022-12-03T09:35:52.485Z,100876.13
2022-12-03T09:38:20.957Z,100878.19
2022-12-03T09:40:49.414Z,100872.69
2022-12-03T09:43:18.090Z,100877.06
2022-12-03T09:45:48.412Z,100883.22
2022-12-03T09:48:23.568Z,100874.34
2022-12-03T09:50:52.842Z,100870.13
2022-12-03T09:53:25.822Z,100871.25
2022-12-03T09:55:54.406Z,100878.84
2022-12-03T09:58:23.506Z,100875.00
2022-12-03T10:00:53.334Z,100875.38
2022-12-03T10:03:30.323Z,100867.91
2022-12-03T10:05:58.963Z,100868.09
2022-12-03T10:08:33.903Z,100858.75
2022-12-03T10:11:02.334Z,100859.47
2022-12-03T10:13:34.621Z,100858.56
2022-12-03T10:16:03.489Z,100848.63
2022-12-03T10:18:41.321Z,100847.59
2022-12-03T10:21:22.993Z,100849.28
2022-12-03T10:23:55.249Z,100847.13
2022-12-03T10:26:41.349Z,100837.38
2022-12-03T10:29:21.199Z,100839.59
2022-12-03T10:32:08.914Z,100836.34
2022-12-03T10:34:40.867Z,100844.19
2022-12-03T10:37:21.713Z,100834.03
2022-12-03T10:40:08.280Z,100835.69
2022-12-03T10:42:40.470Z,100834.47
2022-12-03T10:45:20.967Z,100838.88
2022-12-03T10:48:07.002Z,100828.66
2022-12-03T10:50:36.774Z,100826.22
2022-12-03T10:53:05.531Z,100818.50
2022-12-03T10:55:42.376Z,100815.31
2022-12-03T10:58:26.012Z,100818.97
2022-12-03T11:00:57.003Z,100816.72
2022-12-03T11:03:28.738Z,100816.84
2022-12-03T11:05:58.526Z,100810.34
2022-12-03T11:08:32.040Z,100803.22
2022-12-03T11:11:07.735Z,100806.41
2022-12-03T11:13:36.307Z,100810.56
2022-12-03T11:16:08.146Z,100810.31
2022-12-03T11:18:39.494Z,100800.47
2022-12-03T11:21:10.227Z,100799.50
2022-12-03T11:24:01.100Z,100803.09
2022-12-03T11:26:31.926Z,100811.94
2022-12-03T11:29:01.049Z,100801.38
2022-12-03T11:31:42.825Z,100796.97
2022-12-03T11:34:20.507Z,100794.91
2022-12-03T11:37:13.337Z,100801.09
2022-12-03T11:39:55.670Z,100790.09
2022-12-03T11:42:25.493Z,100785.50
2022-12-03T11:45:06.021Z,100784.09
2022-12-03T11:47:42.127Z,100774.53
2022-12-03T11:50:23.297Z,100769.13
2022-12-03T11:53:04.424Z,100766.13
2022-12-03T11:55:48.832Z,100760.78
2022-12-03T11:58:29.930Z,100759.44
2022-12-03T12:01:01.375Z,100757.88
2022-12-03T12:03:33.394Z,100759.31
2022-12-03T12:06:21.671Z,100756.56
2022-12-03T12:08:53.003Z,100763.00
2022-12-03T12:11:36.708Z,100752.69
2022-12-03T12:14:13.874Z,100764.56
2022-12-03T12:16:55.951Z,100753.25
2022-12-03T12:19:37.455Z,100762.25
2022-12-03T12:22:25.012Z,100756.69
2022-12-03T12:25:01.950Z,100756.38
2022-12-03T12:27:45.244Z,100743.03
2022-12-03T12:30:21.675Z,100740.72
2022-12-03T12:33:23.361Z,100734.84
2022-12-03T12:35:52.008Z,100736.31
2022-12-03T12:38:24.313Z,100734.84
2022-12-03T12:40:54.515Z,100733.25
2022-12-03T12:43:29.590Z,100736.41
2022-12-03T12:46:18.712Z,100729.47
2022-12-03T12:48:52.495Z,100729.34
2022-12-03T12:51:22.937Z,100727.50
2022-12-03T12:53:53.820Z,100731.16
2022-12-03T12:56:31.512Z,100729.72
2022-12-03T12:59:13.243Z,100725.75
2022-12-03T13:01:42.658Z,100735.06
2022-12-03T13:04:25.283Z,100728.66
2022-12-03T13:06:55.313Z,100721.84
2022-12-03T13:09:26.378Z,100733.47
2022-12-03T13:11:59.926Z,100725.03
2022-12-03T13:14:33.408Z,100719.88
2022-12-03T13:17:03.491Z,100717.28
2022-12-03T13:19:46.714Z,100717.03
2022-12-03T13:22:21.638Z,100713.09
2022-12-03T13:24:54.616Z,100713.91
2022-12-03T13:27:29.747Z,100714.63
2022-12-03T13:30:12.696Z,100693.94
2022-12-03T13:32:43.750Z,100692.16
2022-12-03T13:35:39.909Z,100695.63
2022-12-03T13:38:17.735Z,100703.00
2022-12-03T13:40:46.343Z,100703.66
2022-12-03T13:43:18.003Z,100707.19
2022-12-03T13:45:49.859Z,100705.31
2022-12-03T13:48:36.261Z,100711.00
2022-12-03T13:51:31.455Z,100705.19
2022-12-03T13:54:01.443Z,100705.06
2022-12-03T13:56:48.328Z,100692.06
2022-12-03T13:59:22.993Z,100693.00
2022-12-03T14:01:54.672Z,100693.56
2022-12-03T14:04:23.262Z,100701.97
2022-12-03T14:06:51.711Z,100699.69
2022-12-03T14:09:20.328Z,100709.22
2022-12-03T14:12:08.467Z,100699.56
2022-12-03T14:14:37.035Z,100705.13
2022-12-03T14:17:06.691Z,100710.66
2022-12-03T14:19:35.159Z,100723.41
2022-12-03T14:22:03.685Z,100724.25
2022-12-03T14:24:32.203Z,100723.72
2022-12-03T14:27:00.606Z,100720.34
2022-12-03T14:29:29.048Z,100719.81
2022-12-03T14:31:57.569Z,100718.88
2022-12-03T14:34:26.166Z,100704.63
2022-12-03T14:36:54.810Z,100713.25
2022-12-03T14:39:23.481Z,100714.91
2022-12-03T14:42:09.243Z,100708.19
2022-12-03T14:44:37.656Z,100718.88
2022-12-03T14:47:06.147Z,100720.94
2022-12-03T14:49:34.830Z,100716.09
2022-12-03T14:52:03.327Z,100716.75
2022-12-03T14:54:32.016Z,100710.47
2022-12-03T14:57:00.607Z,100710.00
2022-12-03T14:59:29.113Z,100717.88
2022-12-03T15:01:57.751Z,100719.56
2022-12-03T15:04:26.465Z,100716.94
2022-12-03T15:06:55.071Z,100716.00
2022-12-03T15:09:23.629Z,100718.44
2022-12-03T15:11:52.076Z,100718.63
2022-12-03T15:14:20.625Z,100703.72
2022-12-03T15:16:49.107Z,100724.34
2022-12-03T15:19:17.773Z,100723.03
2022-12-03T15:21:46.190Z,100716.75
2022-12-03T15:24:14.763Z,100712.44
2022-12-03T15:26:43.178Z,100717.69
2022-12-03T15:29:11.641Z,100723.13
2022-12-03T15:31:40.094Z,100715.16
2022-12-03T15:34:08.642Z,100709.72
2022-12-03T15:36:37.312Z,100712.09
2022-12-03T15:39:05.846Z,100717.78
2022-12-03T15:41:34.294Z,100723.75
2022-12-03T15:44:03.242Z,100722.72
2022-12-03T15:46:32.495Z,100710.38
2022-12-03T15:49:00.945Z,100717.47
2022-12-03T15:51:29.440Z,100715.50
2022-12-03T15:53:57.894Z,100720.94
2022-12-03T15:56:26.420Z,100718.31
2022-12-03T15:58:54.820Z,100726.38
2022-12-03T16:01:23.698Z,100709.94
2022-12-03T16:03:52.179Z,100711.59
2022-12-03T16:06:20.712Z,100711.59
2022-12-03T16:08:49.213Z,100713.47
2022-12-03T16:11:17.654Z,100703.28
2022-12-03T16:13:46.114Z,100701.41
2022-12-03T16:16:14.725Z,100710.84
2022-12-03T16:18:43.218Z,100710.00
2022-12-03T16:21:11.656Z,100712.56
2022-12-03T16:23:40.115Z,100719.09
2022-12-03T16:26:08.565Z,100711.69
2022-12-03T16:28:37.028Z,100715.91
2022-12-03T16:31:05.597Z,100706.50
2022-12-03T16:33:34.214Z,100703.03
2022-12-03T16:36:02.665Z,100709.78
2022-12-03T16:38:33.953Z,100707.69
2022-12-03T16:41:02.425Z,100696.06
2022-12-03T16:43:33.965Z,100702.75
2022-12-03T16:46:20.882Z,100701.94
2022-12-03T16:48:49.898Z,100701.47
2022-12-03T16:51:19.401Z,100707.66
2022-12-03T16:53:48.651Z,100692.38
2022-12-03T16:56:17.436Z,100696.56
2022-12-03T16:58:46.487Z,100704.97
2022-12-03T17:01:14.994Z,100696.56
2022-12-03T17:03:43.461Z,100695.59
2022-12-03T17:06:11.972Z,100691.06
2022-12-03T17:08:45.853Z,100692.47
2022-12-03T17:11:17.364Z,100686.47
2022-12-03T17:13:46.325Z,100677.97
2022-12-03T17:16:15.153Z,100681.63
2022-12-03T17:18:43.856Z,100679.97
2022-12-03T17:21:12.368Z,100681.63
2022-12-03T17:23:40.950Z,100685.09
2022-12-03T17:26:09.455Z,100687.72
2022-12-03T17:28:37.836Z,100689.41
2022-12-03T17:31:06.469Z,100678.31
2022-12-03T17:33:35.102Z,100675.59
2022-12-03T17:36:03.733Z,100666.06
2022-12-03T17:38:38.617Z,100663.97
2022-12-03T17:41:08.461Z,100666.38
2022-12-03T17:43:36.886Z,100662.91
2022-12-03T17:46:06.827Z,100672.41
2022-12-03T17:48:35.557Z,100665.06
2022-12-03T17:51:04.138Z,100670.22
2022-12-03T17:53:32.586Z,100659.16
2022-12-03T17:56:01.117Z,100667.56
2022-12-03T17:58:29.776Z,100665.03
2022-12-03T18:01:02.421Z,100676.88
2022-12-03T18:03:31.700Z,100685.78
2022-12-03T18:06:00.292Z,100677.41
2022-12-03T18:08:28.798Z,100676.63
2022-12-03T18:10:57.257Z,100676.94
2022-12-03T18:13:25.991Z,100672.97
2022-12-03T18:15:54.524Z,100675.94
2022-12-03T18:18:23.075Z,100671.19
2022-12-03T18:20:52.734Z,100673.53
2022-12-03T18:23:21.239Z,100676.38
2022-12-03T18:25:49.850Z,100672.69
2022-12-03T18:28:18.219Z,100674.16
2022-12-03T18:30:52.179Z,100665.53
2022-12-03T18:33:23.324Z,100662.75
2022-12-03T18:35:55.477Z,100662.84
2022-12-03T18:38:28.821Z,100666.38
2022-12-03T18:40:58.323Z,100658.88
2022-12-03T18:43:29.661Z,100665.97
2022-12-03T18:45:58.111Z,100674.25
2022-12-03T18:48:26.905Z,100661.66
2022-12-03T18:50:56.515Z,100660.63
2022-12-03T18:53:24.923Z,100664.41
2022-12-03T18:55:53.417Z,100661.78
2022-12-03T18:58:22.212Z,100652.34
2022-12-03T19:00:50.701Z,100654.78
2022-12-03T19:03:19.640Z,100652.78
2022-12-03T19:05:48.226Z,100656.66
2022-12-03T19:08:16.767Z,100652.16
2022-12-03T19:10:45.356Z,100648.69
2022-12-03T19:13:13.867Z,100652.16
2022-12-03T19:15:42.429Z,100649.53
2022-12-03T19:18:10.975Z,100649.09
2022-12-03T19:20:42.743Z,100647.25
2022-12-03T19:23:11.484Z,100654.56
2022-12-03T19:25:40.214Z,100661.28
2022-12-03T19:28:09.041Z,100658.69
2022-12-03T19:30:37.740Z,100654.78
2022-12-03T19:33:06.458Z,100652.44
2022-12-03T19:35:40.919Z,100644.78
2022-12-03T19:38:09.401Z,100666.19
2022-12-03T19:40:37.921Z,100646.75
2022-12-03T19:43:06.792Z,100649.72
2022-12-03T19:45:37.948Z,100645.97
2022-12-03T19:48:06.872Z,100653.94
2022-12-03T19:50:35.335Z,100658.22
2022-12-03T19:53:03.741Z,100658.22
2022-12-03T19:55:35.221Z,100664.75
2022-12-03T19:58:03.808Z,100653.44
2022-12-03T20:00:32.362Z,100649.13
2022-12-03T20:03:00.847Z,100653.63
2022-12-03T20:05:33.283Z,100645.16
2022-12-03T20:08:02.394Z,100654.50
2022-12-03T20:10:30.966Z,100644.31
2022-12-03T20:12:59.657Z,100644.44
2022-12-03T20:15:28.722Z,100653.94
2022-12-03T20:17:57.173Z,100648.28
2022-12-03T20:20:25.631Z,100648.19
2022-12-03T20:22:54.148Z,100649.75
2022-12-03T20:25:22.753Z,100643.47
2022-12-03T20:27:51.203Z,100633.59
2022-12-03T20:30:19.714Z,100643.91
2022-12-03T20:32:48.314Z,100630.16
2022-12-03T20:35:16.935Z,100627.66
2022-12-03T20:37:45.523Z,100638.13
2022-12-03T20:40:14.160Z,100643.47
2022-12-03T20:42:42.669Z,100633.31
2022-12-03T20:45:11.695Z,100632.25
2022-12-03T20:47:40.229Z,100638.00
2022-12-03T20:50:09.023Z,100634.22
2022-12-03T20:52:37.593Z,100623.94
2022-12-03T20:55:06.354Z,100626.28
2022-12-03T20:57:35.006Z,100635.28
2022-12-03T21:00:03.624Z,100629.09
2022-12-03T21:02:32.524Z,100626.28
2022-12-03T21:05:01.206Z,100638.22
2022-12-03T21:07:29.832Z,100633.94
2022-12-03T21:09:58.363Z,100634.66
2022-12-03T21:12:28.303Z,100632.56
2022-12-03T21:14:56.830Z,100629.22
2022-12-03T21:17:25.282Z,100627.53
2022-12-03T21:19:54.066Z,100629.00
2022-12-03T21:22:22.809Z,100622.84
2022-12-03T21:24:51.345Z,100615.47
2022-12-03T21:27:21.756Z,100616.66
2022-12-03T21:29:50.891Z,100618.44
2022-12-03T21:32:19.418Z,100621.97
2022-12-03T21:34:48.047Z,100615.69
2022-12-03T21:37:16.609Z,100623.66
2022-12-03T21:39:45.079Z,100616.44
2022-12-03T21:42:25.910Z,100621.13
2022-12-03T21:45:02.103Z,100625.03
2022-12-03T21:47:36.538Z,100620.84
2022-12-03T21:50:11.136Z,100619.88
2022-12-03T21:52:39.598Z,100620.09
2022-12-03T21:55:08.411Z,100619.34
2022-12-03T21:57:37.643Z,100619.88
2022-12-03T22:00:10.225Z,100630.38
2022-12-03T22:02:41.036Z,100624.81
2022-12-03T22:05:11.281Z,100622.94
2022-12-03T22:07:41.379Z,100621.06
2022-12-03T22:10:14.002Z,100624.19
2022-12-03T22:12:42.724Z,100623.47
2022-12-03T22:15:18.349Z,100613.28
2022-12-03T22:17:47.631Z,100611.50
2022-12-03T22:20:16.384Z,100613.91
2022-12-03T22:22:45.023Z,100617.91
2022-12-03T22:25:13.438Z,100618.94
2022-12-03T22:27:41.899Z,100603.53
2022-12-03T22:30:10.720Z,100617.50
2022-12-03T22:32:39.339Z,100612.25
2022-12-03T22:35:08.189Z,100621.56
2022-12-03T22:37:36.639Z,100613.41
2022-12-03T22:40:05.762Z,100612.34
2022-12-03T22:42:34.284Z,100611.28
2022-12-03T22:45:02.690Z,100602.16
2022-12-03T22:47:31.170Z,100597.88
2022-12-03T22:49:59.574Z,100592.63
2022-12-03T22:52:28.137Z,100588.00
2022-12-03T22:54:56.594Z,100593.88
2022-12-03T22:57:25.108Z,100594.28
2022-12-03T22:59:53.955Z,100590.94
2022-12-03T23:02:22.667Z,100584.00
2022-12-03T23:04:51.168Z,100591.06
2022-12-03T23:07:19.620Z,100591.88
2022-12-03T23:09:48.284Z,100591.28
2022-12-03T23:12:16.815Z,100593.91
2022-12-03T23:14:45.416Z,100592.91
2022-12-03T23:17:14.001Z,100591.56
2022-12-03T23:19:42.418Z,100586.41
2022-12-03T23:22:10.841Z,100579.59
2022-12-03T23:24:39.285Z,100570.91
2022-12-03T23:27:07.748Z,100585.47
2022-12-03T23:29:36.626Z,100578.00
2022-12-03T23:32:05.225Z,100573.81
2022-12-03T23:34:33.830Z,100565.22
2022-12-03T23:37:02.394Z,100569.00
2022-12-03T23:39:30.750Z,100564.38
2022-12-03T23:41:59.260Z,100567.09
2022-12-03T23:44:29.222Z,100564.03
2022-12-03T23:46:57.764Z,100563.53
2022-12-03T23:49:26.624Z,100555.56
2022-12-03T23:51:55.023Z,100558.91
2022-12-03T23:54:23.770Z,100556.50
2022-12-03T23:56:52.115Z,100548.50
2022-12-03T23:59:20.712Z,100549.47
